Time;durP1;ratioP1;P1;durP2;ratioP2;P2;SDS_P1;SDS_P2;PMS_P1;PMS_P2;Temp;Humidity;BMP_temperature;BMP_pressure;BME280_temperature;BME280_humidity;BME280_pressure;Samples;Min_cycle;Max_cycle;Signal;HPM_P1;HPM_P2
2023/08/27 00:00:07;;;;;;;2.83;2.00;;;;;;;15.07;100.00;100947.22;5088574;28;20119;-67
2023/08/27 00:02:33;;;;;;;3.17;2.08;;;;;;;15.08;100.00;100933.53;5088567;28;20039;-67
2023/08/27 00:04:58;;;;;;;3.30;2.03;;;;;;;15.05;100.00;100933.19;5088564;28;20032;-67
2023/08/27 00:07:23;;;;;;;4.18;2.33;;;;;;;15.05;100.00;100931.31;5088350;28;20071;-67
2023/08/27 00:09:49;;;;;;;2.40;2.20;;;;;;;15.06;100.00;100921.38;5088454;28;20039;-66
2023/08/27 00:12:15;;;;;;;4.15;2.20;;;;;;;15.02;100.00;100918.34;5088269;28;20052;-66
2023/08/27 00:14:40;;;;;;;1.92;1.70;;;;;;;15.02;100.00;100928.25;5088429;28;20497;-66
2023/08/27 00:17:05;;;;;;;2.00;1.80;;;;;;;15.03;100.00;100938.75;5091181;28;20074;-67
2023/08/27 00:19:31;;;;;;;4.57;2.30;;;;;;;15.05;100.00;100933.19;5092300;28;20037;-67
2023/08/27 00:21:58;;;;;;;2.90;2.10;;;;;;;15.02;100.00;100925.56;5092188;28;20027;-67
2023/08/27 00:24:24;;;;;;;3.22;2.20;;;;;;;15.01;100.00;100918.53;5092420;28;20122;-66
2023/08/27 00:26:49;;;;;;;3.78;2.42;;;;;;;14.98;100.00;100917.13;5092049;28;20036;-66
2023/08/27 00:29:18;;;;;;;3.30;2.40;;;;;;;14.91;100.00;100902.97;5092150;28;20039;-67
2023/08/27 00:31:43;;;;;;;3.58;2.40;;;;;;;14.86;100.00;100894.78;5091994;28;20032;-67
2023/08/27 00:34:08;;;;;;;5.35;2.05;;;;;;;14.84;100.00;100891.47;5073510;28;20032;-67
2023/08/27 00:36:34;;;;;;;7.03;2.40;;;;;;;14.80;100.00;100879.53;5072602;28;20541;-67
2023/08/27 00:38:59;;;;;;;2.90;1.95;;;;;;;14.75;100.00;100865.97;5072503;28;20039;-67
2023/08/27 00:41:24;;;;;;;3.90;1.90;;;;;;;14.74;100.00;100873.19;5072505;28;20056;-66
2023/08/27 00:43:50;;;;;;;2.33;1.83;;;;;;;14.75;100.00;100855.22;5091656;28;20085;-66
2023/08/27 00:46:15;;;;;;;2.15;1.60;;;;;;;14.65;100.00;100834.28;5091726;28;20606;-66
2023/08/27 00:48:41;;;;;;;2.58;1.90;;;;;;;14.75;100.00;100849.84;5091820;28;20107;-66
2023/08/27 00:51:07;;;;;;;3.33;2.28;;;;;;;14.70;100.00;100837.13;5091646;28;20043;-66
2023/08/27 00:53:33;;;;;;;3.53;1.90;;;;;;;14.75;100.00;100839.13;5091533;28;20020;-67
2023/08/27 00:55:58;;;;;;;3.00;2.10;;;;;;;14.70;100.00;100834.44;5091472;28;20040;-67
2023/08/27 00:58:24;;;;;;;5.20;2.22;;;;;;;14.66;100.00;100819.81;5091605;28;20012;-66
2023/08/27 01:00:49;;;;;;;5.68;2.88;;;;;;;14.67;100.00;100826.81;5090173;28;20085;-66
2023/08/27 01:03:14;;;;;;;3.92;1.50;;;;;;;14.68;100.00;100836.53;5091531;28;20035;-66
2023/08/27 01:05:40;;;;;;;2.13;1.17;;;;;;;14.65;100.00;100847.72;5091541;28;20028;-66
2023/08/27 01:08:12;;;;;;;4.10;2.05;;;;;;;14.57;100.00;100823.84;5091271;28;20032;-66
2023/08/27 01:10:56;;;;;;;;;;;;;;;14.60;100.00;100818.84;5091740;28;20039;-66
2023/08/27 01:13:50;;;;;;;3.03;2.33;;;;;;;14.54;100.00;100816.22;5090863;28;19916;-66
2023/08/27 01:16:19;;;;;;;2.58;1.98;;;;;;;14.42;100.00;100818.81;5069602;28;20105;-66
2023/08/27 01:18:45;;;;;;;3.20;1.60;;;;;;;14.37;100.00;100814.09;5091100;28;20107;-66
2023/08/27 01:21:24;;;;;;;5.43;1.75;;;;;;;14.41;100.00;100820.69;5089798;28;20522;-66
2023/08/27 01:23:49;;;;;;;3.28;1.27;;;;;;;14.39;100.00;100816.56;5091083;28;20032;-66
2023/08/27 01:26:39;;;;;;;1.85;1.45;;;;;;;14.29;100.00;100800.97;5090999;28;20047;-66
2023/08/27 01:29:30;;;;;;;4.43;1.67;;;;;;;14.29;100.00;100809.03;5090968;28;20068;-66
2023/08/27 01:32:05;;;;;;;4.97;2.45;;;;;;;14.28;100.00;100814.59;5077787;28;20020;-66
2023/08/27 01:34:31;;;;;;;2.03;1.48;;;;;;;14.19;100.00;100808.72;5090839;28;20063;-67
2023/08/27 01:36:57;;;;;;;3.42;2.08;;;;;;;14.14;100.00;100814.75;5090685;28;20388;-66
2023/08/27 01:39:23;;;;;;;4.30;2.35;;;;;;;14.15;100.00;100818.28;5090766;28;20020;-66
2023/08/27 01:41:48;;;;;;;2.90;2.10;;;;;;;14.11;100.00;100817.88;5090729;28;20028;-66
2023/08/27 01:44:14;;;;;;;7.93;2.85;;;;;;;14.09;100.00;100822.63;5090472;28;20028;-66
2023/08/27 01:46:39;;;;;;;5.78;2.00;;;;;;;14.04;100.00;100830.50;5089221;28;20550;-67
2023/08/27 01:49:04;;;;;;;3.17;1.90;;;;;;;14.03;100.00;100818.97;5090482;28;20028;-66
2023/08/27 01:51:30;;;;;;;4.22;2.55;;;;;;;14.00;100.00;100822.09;5090472;28;20051;-66
2023/08/27 01:53:55;;;;;;;4.07;1.88;;;;;;;13.97;100.00;100821.72;5090404;28;20081;-66
2023/08/27 01:56:20;;;;;;;2.47;1.75;;;;;;;13.96;100.00;100823.59;5090486;28;20059;-66
2023/08/27 01:58:46;;;;;;;1.50;1.40;;;;;;;13.94;100.00;100816.81;5090471;28;20028;-66
2023/08/27 02:01:11;;;;;;;5.30;2.00;;;;;;;13.91;100.00;100817.22;5090509;28;20051;-66
2023/08/27 02:03:36;;;;;;;1.90;1.45;;;;;;;13.92;100.00;100816.19;5090226;28;20092;-66
2023/08/27 02:06:03;;;;;;;2.58;1.50;;;;;;;13.89;100.00;100811.28;5090266;28;20056;-66
2023/08/27 02:08:28;;;;;;;2.60;1.75;;;;;;;13.89;100.00;100798.69;5086520;28;20035;-66
2023/08/27 02:10:54;;;;;;;2.15;1.75;;;;;;;13.88;100.00;100798.91;5089697;28;20028;-66
2023/08/27 02:13:19;;;;;;;2.05;1.50;;;;;;;13.93;100.00;100810.59;5088639;28;20157;-66
2023/08/27 02:15:44;;;;;;;2.42;1.70;;;;;;;13.94;100.00;100809.59;5089983;28;20071;-66
2023/08/27 02:18:10;;;;;;;5.72;2.05;;;;;;;13.95;100.00;100803.16;5089961;28;20061;-66
2023/08/27 02:20:35;;;;;;;3.72;1.88;;;;;;;13.98;100.00;100804.59;5089946;28;20052;-66
2023/08/27 02:23:00;;;;;;;2.92;1.90;;;;;;;14.00;100.00;100802.50;5089992;28;20085;-66
2023/08/27 02:25:26;;;;;;;2.65;1.75;;;;;;;13.96;100.00;100794.09;5089944;28;20074;-66
2023/08/27 02:27:51;;;;;;;4.53;1.63;;;;;;;13.96;100.00;100787.88;5089690;28;20024;-66
2023/08/27 02:30:17;;;;;;;2.38;1.80;;;;;;;13.99;100.00;100800.84;5089772;28;20570;-66
2023/08/27 02:32:42;;;;;;;2.00;1.55;;;;;;;14.02;100.00;100798.56;5089559;28;20360;-66
2023/08/27 02:35:07;;;;;;;3.38;2.50;;;;;;;14.02;100.00;100798.56;5089703;28;20036;-66
2023/08/27 02:37:33;;;;;;;3.08;1.83;;;;;;;14.05;100.00;100802.69;5089647;28;20027;-66
2023/08/27 02:39:58;;;;;;;2.15;1.80;;;;;;;14.00;100.00;100802.50;5089273;28;20085;-66
2023/08/27 02:42:24;;;;;;;3.92;2.00;;;;;;;14.01;100.00;100804.97;5088467;28;20067;-66
2023/08/27 02:44:49;;;;;;;3.53;1.88;;;;;;;14.07;100.00;100818.53;5089453;28;20043;-67
2023/08/27 02:47:15;;;;;;;3.80;2.47;;;;;;;13.98;100.00;100797.34;5089344;28;20429;-66
2023/08/27 02:49:40;;;;;;;2.45;1.83;;;;;;;13.87;100.00;100790.03;5089218;28;20536;-66
2023/08/27 02:52:06;;;;;;;3.25;2.75;;;;;;;13.78;100.00;100800.22;5089423;28;20036;-66
2023/08/27 02:54:31;;;;;;;11.57;2.92;;;;;;;13.65;100.00;100780.72;5089236;28;20019;-66
2023/08/27 02:56:57;;;;;;;6.05;2.65;;;;;;;13.71;100.00;100810.19;5089556;28;20158;-66
2023/08/27 02:59:22;;;;;;;3.58;2.50;;;;;;;13.73;100.00;100823.38;5089356;28;20114;-66
2023/08/27 03:01:47;;;;;;;5.80;2.53;;;;;;;13.74;100.00;100830.38;5089278;28;20101;-66
2023/08/27 03:04:13;;;;;;;4.25;2.95;;;;;;;13.77;100.00;100827.25;5088007;28;20051;-66
2023/08/27 03:06:38;;;;;;;3.78;2.78;;;;;;;13.72;100.00;100813.66;5089136;28;20032;-66
2023/08/27 03:09:04;;;;;;;4.70;3.10;;;;;;;13.78;100.00;100815.47;5088913;28;20372;-67
2023/08/27 03:11:29;;;;;;;6.28;2.80;;;;;;;13.80;100.00;100826.81;5089072;28;20039;-66
2023/08/27 03:13:54;;;;;;;4.70;2.60;;;;;;;13.85;100.00;100824.28;5088964;28;20067;-66
2023/08/27 03:16:20;;;;;;;5.22;2.90;;;;;;;13.85;100.00;100821.59;5089093;28;20036;-66
2023/08/27 03:18:46;;;;;;;5.10;2.90;;;;;;;13.89;100.00;100819.31;5089068;28;20096;-67
2023/08/27 03:21:11;;;;;;;5.78;2.40;;;;;;;13.87;100.00;100816.84;5089165;28;20077;-67
2023/08/27 03:23:37;;;;;;;6.25;2.20;;;;;;;13.87;100.00;100816.03;5089004;28;20144;-67
2023/08/27 03:26:03;;;;;;;5.10;3.00;;;;;;;13.87;100.00;100808.00;5088958;28;20055;-67
2023/08/27 03:28:28;;;;;;;4.53;2.58;;;;;;;13.88;100.00;100817.66;5088923;28;20024;-67
2023/08/27 03:30:54;;;;;;;4.72;2.28;;;;;;;13.88;100.00;100829.22;5088734;28;20070;-66
2023/08/27 03:33:19;;;;;;;4.25;2.40;;;;;;;13.88;100.00;100818.47;5088943;28;20652;-67
2023/08/27 03:35:54;;;;;;;6.45;2.70;;;;;;;13.92;100.00;100825.06;5088878;28;20040;-66
2023/08/27 03:38:19;;;;;;;3.40;2.38;;;;;;;13.95;100.00;100832.66;5088872;28;20042;-66
2023/08/27 03:40:52;;;;;;;3.58;2.58;;;;;;;13.95;100.00;100834.53;5088868;28;20467;-67
2023/08/27 03:43:17;;;;;;;7.20;3.13;;;;;;;13.96;100.00;100838.84;5088876;28;20465;-67
2023/08/27 03:45:43;;;;;;;5.75;2.95;;;;;;;13.95;100.00;100829.16;5088759;28;20103;-67
2023/08/27 03:48:08;;;;;;;3.85;2.35;;;;;;;13.94;100.00;100844.44;5088727;28;20119;-67
2023/08/27 03:50:37;;;;;;;4.97;2.40;;;;;;;13.94;100.00;100836.41;5089307;28;20028;-67
2023/08/27 03:53:04;;;;;;;6.75;3.00;;;;;;;13.95;100.00;100831.84;5092659;28;20126;-66
2023/08/27 03:55:30;;;;;;;4.93;2.50;;;;;;;13.91;100.00;100822.59;5092748;28;20494;-67
2023/08/27 03:57:55;;;;;;;4.97;2.60;;;;;;;13.91;100.00;100825.28;5092855;28;20028;-66
2023/08/27 04:00:21;;;;;;;6.10;2.70;;;;;;;13.94;100.00;100825.66;5092289;28;20055;-67
2023/08/27 04:02:46;;;;;;;5.60;2.53;;;;;;;13.91;100.00;100818.06;5073356;28;20063;-67
2023/08/27 04:05:12;;;;;;;5.60;2.88;;;;;;;13.90;100.00;100816.41;5073318;28;20533;-66
2023/08/27 04:07:37;;;;;;;3.55;2.40;;;;;;;13.88;100.00;100801.59;5092190;28;20059;-66
2023/08/27 04:10:04;;;;;;;5.72;3.33;;;;;;;13.87;100.00;100792.72;5092538;28;20094;-66
2023/08/27 04:12:31;;;;;;;4.28;2.70;;;;;;;13.87;100.00;100790.03;5092526;28;20075;-67
2023/08/27 04:14:57;;;;;;;3.75;2.17;;;;;;;13.88;100.00;100788.19;5092239;28;20051;-67
2023/08/27 04:17:22;;;;;;;6.55;2.72;;;;;;;13.88;100.00;100785.50;5092385;28;20633;-67
2023/08/27 04:19:48;;;;;;;6.10;3.33;;;;;;;13.84;100.00;100787.00;5092313;28;20070;-66
2023/08/27 04:22:13;;;;;;;5.60;2.60;;;;;;;13.86;100.00;100791.09;5092409;28;20020;-66
2023/08/27 04:24:39;;;;;;;7.97;2.92;;;;;;;13.86;100.00;100787.56;5092276;28;20039;-66
2023/08/27 04:27:04;;;;;;;5.78;2.80;;;;;;;13.86;100.00;100787.56;5092152;28;20111;-66
2023/08/27 04:29:29;;;;;;;3.85;2.55;;;;;;;13.80;100.00;100783.91;5092175;28;20028;-67
2023/08/27 04:31:55;;;;;;;5.95;3.47;;;;;;;13.88;100.00;100794.34;5092508;28;20123;-67
2023/08/27 04:34:21;;;;;;;3.80;2.58;;;;;;;13.88;100.00;100801.59;5091984;28;20039;-67
2023/08/27 04:36:46;;;;;;;8.52;3.10;;;;;;;13.84;100.00;100795.84;5091905;28;20110;-66
2023/08/27 04:39:13;;;;;;;7.20;3.28;;;;;;;13.88;100.00;100806.94;5091887;28;20546;-66
2023/08/27 04:41:39;;;;;;;7.55;3.72;;;;;;;13.87;100.00;100797.28;5091950;28;20052;-67
2023/08/27 04:44:05;;;;;;;6.07;2.60;;;;;;;13.87;100.00;100798.09;5091928;28;20063;-67
2023/08/27 04:46:31;;;;;;;5.15;2.50;;;;;;;13.88;100.00;100802.41;5091835;28;20035;-67
2023/08/27 04:48:56;;;;;;;4.00;2.58;;;;;;;13.86;100.00;100804.50;5091513;28;20039;-67
2023/08/27 04:51:23;;;;;;;6.00;2.75;;;;;;;13.84;100.00;100806.56;5091586;28;20511;-67
2023/08/27 04:53:49;;;;;;;3.13;2.30;;;;;;;13.85;100.00;100813.56;5091078;28;20058;-67
2023/08/27 04:56:14;;;;;;;4.55;2.65;;;;;;;13.80;100.00;100797.31;5090533;28;20067;-67
2023/08/27 04:58:39;;;;;;;2.78;2.00;;;;;;;13.81;100.00;100804.34;5089239;28;20031;-67
2023/08/27 05:01:05;;;;;;;3.85;2.70;;;;;;;13.78;100.00;100802.06;5090687;28;20067;-66
2023/08/27 05:03:30;;;;;;;5.63;2.42;;;;;;;13.78;100.00;100812.78;5090907;28;20089;-66
2023/08/27 05:05:56;;;;;;;3.30;2.10;;;;;;;13.75;100.00;100816.75;5091281;28;20085;-67
2023/08/27 05:08:21;;;;;;;5.20;2.78;;;;;;;13.77;100.00;100816.53;5091209;28;20024;-67
2023/08/27 05:10:46;;;;;;;6.75;2.33;;;;;;;13.75;100.00;100816.75;5091096;28;20082;-66
2023/08/27 05:13:12;;;;;;;6.95;2.38;;;;;;;13.75;100.00;100811.41;5090908;28;20020;-66
2023/08/27 05:15:37;;;;;;;7.00;2.33;;;;;;;13.75;100.00;100816.75;5090032;28;20072;-66
2023/08/27 05:18:03;;;;;;;8.15;2.53;;;;;;;13.74;100.00;100817.78;5089602;28;20044;-66
2023/08/27 05:20:28;;;;;;;6.85;2.83;;;;;;;13.78;100.00;100819.00;5090114;28;20047;-66
2023/08/27 05:22:54;;;;;;;5.35;2.60;;;;;;;13.77;100.00;100811.97;5090826;28;20071;-66
2023/08/27 05:25:19;;;;;;;5.22;2.13;;;;;;;13.81;100.00;100828.47;5090802;28;20036;-67
2023/08/27 05:27:45;;;;;;;5.60;3.33;;;;;;;13.79;100.00;100809.09;5091883;28;20512;-66
2023/08/27 05:30:16;;;;;;;4.75;2.67;;;;;;;13.79;100.00;100817.94;5090669;28;20484;-66
2023/08/27 05:32:43;;;;;;;4.03;2.50;;;;;;;13.84;100.00;100816.47;5069770;28;20063;-66
2023/08/27 05:35:08;;;;;;;4.60;2.47;;;;;;;13.85;100.00;100818.13;5090560;28;20059;-67
2023/08/27 05:37:34;;;;;;;8.80;2.80;;;;;;;13.85;100.00;100818.13;5090647;28;20435;-67
2023/08/27 05:40:00;;;;;;;4.05;2.55;;;;;;;13.86;100.00;100817.91;5089398;28;20122;-67
2023/08/27 05:42:25;;;;;;;7.53;2.67;;;;;;;13.84;100.00;100811.94;5089040;28;20040;-66
2023/08/27 05:44:50;;;;;;;2.97;2.65;;;;;;;13.90;100.00;100821.78;5090697;28;20032;-66
2023/08/27 05:47:17;;;;;;;6.10;3.30;;;;;;;13.93;100.00;100815.16;5090138;28;20047;-66
2023/08/27 05:49:45;;;;;;;4.93;3.28;;;;;;;13.98;100.00;100812.63;5090490;28;20039;-66
2023/08/27 05:52:10;;;;;;;3.65;2.90;;;;;;;14.04;100.00;100817.09;5086832;28;20111;-67
2023/08/27 05:54:35;;;;;;;3.95;2.58;;;;;;;14.11;100.00;100815.19;5070843;28;20180;-66
2023/08/27 05:57:01;;;;;;;4.53;2.65;;;;;;;14.13;100.00;100805.06;5070651;28;20068;-66
2023/08/27 05:59:26;;;;;;;6.47;2.50;;;;;;;14.15;100.00;100800.31;5070796;28;20043;-67
2023/08/27 06:01:51;;;;;;;4.15;2.25;;;;;;;14.17;100.00;100802.75;5078423;28;20149;-67
2023/08/27 06:04:17;;;;;;;5.70;3.25;;;;;;;14.20;100.00;100811.19;5090092;28;20036;-67
2023/08/27 06:06:42;;;;;;;4.15;2.50;;;;;;;14.26;100.00;100812.16;5090244;28;20036;-67
2023/08/27 06:09:08;;;;;;;3.85;2.10;;;;;;;14.28;100.00;100809.25;5070642;28;20039;-67
2023/08/27 06:11:33;;;;;;;5.20;2.65;;;;;;;14.30;100.00;100810.66;5070447;28;20017;-66
2023/08/27 06:13:59;;;;;;;6.15;3.13;;;;;;;14.26;100.00;100806.81;5069463;28;20102;-67
2023/08/27 06:16:24;;;;;;;7.80;3.30;;;;;;;14.27;100.00;100802.25;5089711;28;20028;-66
2023/08/27 06:18:49;;;;;;;7.38;2.63;;;;;;;14.24;100.00;100788.22;5089640;28;20484;-66
2023/08/27 06:21:17;;;;;;;4.07;2.60;;;;;;;14.33;100.00;100798.66;5088578;28;20031;-67
2023/08/27 06:23:42;;;;;;;4.68;2.85;;;;;;;14.38;100.00;100791.63;5089484;28;20101;-67
2023/08/27 06:26:07;;;;;;;5.53;3.10;;;;;;;14.45;100.00;100796.91;5089846;28;20028;-67
2023/08/27 06:28:33;;;;;;;4.40;2.67;;;;;;;14.52;100.00;100794.97;5089587;28;20039;-66
2023/08/27 06:30:59;;;;;;;6.53;3.22;;;;;;;14.55;100.00;100791.03;5089664;28;20032;-67
2023/08/27 06:33:25;;;;;;;3.08;2.30;;;;;;;14.54;100.00;100779.50;5089487;28;20032;-66
2023/08/27 06:35:51;;;;;;;5.28;2.63;;;;;;;14.59;100.00;100793.06;5089411;28;20028;-66
2023/08/27 06:38:17;;;;;;;6.95;3.17;;;;;;;14.66;100.00;100792.97;5089485;28;20028;-67
2023/08/27 06:40:42;;;;;;;5.05;2.95;;;;;;;14.65;100.00;100789.47;5089559;28;20367;-66
2023/08/27 06:43:08;;;;;;;5.82;2.83;;;;;;;14.66;100.00;100790.28;5089551;28;20122;-67
2023/08/27 06:45:34;;;;;;;4.93;2.75;;;;;;;14.64;100.00;100789.69;5089210;28;20380;-66
2023/08/27 06:47:59;;;;;;;7.85;3.50;;;;;;;14.64;100.00;100787.00;5089133;28;20031;-67
2023/08/27 06:50:25;;;;;;;4.57;3.30;;;;;;;14.67;100.00;100794.59;5089206;28;20040;-67
2023/08/27 06:52:50;;;;;;;6.03;2.95;;;;;;;14.69;100.00;100792.50;5089254;28;20089;-67
2023/08/27 06:55:16;;;;;;;7.38;3.25;;;;;;;14.75;100.00;100788.09;5089279;28;20035;-67
2023/08/27 06:57:41;;;;;;;7.43;3.15;;;;;;;14.80;100.00;100782.88;5089234;28;20108;-67
2023/08/27 07:00:07;;;;;;;4.15;2.78;;;;;;;14.86;100.00;100795.41;5089043;28;20036;-66
2023/08/27 07:02:33;;;;;;;7.30;2.83;;;;;;;14.87;100.00;100789.81;5088962;28;20028;-67
2023/08/27 07:04:59;;;;;;;4.30;3.25;;;;;;;14.92;100.00;100791.81;5088826;28;20399;-66
2023/08/27 07:07:25;;;;;;;4.38;2.78;;;;;;;14.97;100.00;100796.50;5088935;28;20057;-67
2023/08/27 07:09:51;;;;;;;5.25;3.20;;;;;;;15.06;100.00;100789.75;5088905;28;20028;-66
2023/08/27 07:12:18;;;;;;;9.90;3.20;;;;;;;15.06;100.00;100784.38;5089197;28;20074;-67
2023/08/27 07:14:44;;;;;;;6.72;3.70;;;;;;;15.16;100.00;100795.41;5069200;28;20052;-67
2023/08/27 07:17:09;;;;;;;5.82;3.47;;;;;;;15.26;100.00;100797.56;5068252;28;20065;-67
2023/08/27 07:19:35;;;;;;;6.72;3.50;;;;;;;15.28;100.00;100796.28;5069694;28;20103;-67
2023/08/27 07:22:00;;;;;;;7.40;3.35;;;;;;;15.38;100.00;100794.88;5088780;28;20517;-67
2023/08/27 07:24:26;;;;;;;6.35;2.92;;;;;;;15.41;100.00;100800.63;5088633;28;20751;-67
2023/08/27 07:26:52;;;;;;;8.00;3.60;;;;;;;15.40;100.00;100798.16;5088584;28;20028;-67
2023/08/27 07:29:17;;;;;;;8.20;4.13;;;;;;;15.30;100.00;100788.81;5087397;28;20215;-67
2023/08/27 07:31:43;;;;;;;7.22;3.85;;;;;;;15.30;100.00;100798.72;5088600;28;20040;-67
2023/08/27 07:34:08;;;;;;;4.85;2.75;;;;;;;15.37;100.00;100798.63;5088725;28;20036;-67
2023/08/27 07:36:33;;;;;;;6.97;4.28;;;;;;;15.43;100.00;100797.69;5088842;28;20032;-70
2023/08/27 07:38:59;;;;;;;7.65;3.80;;;;;;;15.47;100.00;100807.78;5088870;28;20042;-67
2023/08/27 07:41:24;;;;;;;6.70;3.63;;;;;;;15.59;100.00;100806.97;5088610;28;20028;-67
2023/08/27 07:43:50;;;;;;;9.38;4.63;;;;;;;15.65;100.00;100809.56;5088774;28;20487;-67
2023/08/27 07:46:15;;;;;;;8.20;4.20;;;;;;;15.77;100.00;100804.22;5069321;28;20032;-67
2023/08/27 07:48:40;;;;;;;7.78;3.80;;;;;;;15.90;100.00;100811.25;5069157;28;20073;-67
2023/08/27 07:51:06;;;;;;;12.68;4.05;;;;;;;15.95;100.00;100801.44;5069147;28;20131;-67
2023/08/27 07:53:31;;;;;;;8.93;3.80;;;;;;;15.99;100.00;100794.53;5069332;28;20650;-67
2023/08/27 07:55:57;;;;;;;5.82;3.80;;;;;;;16.06;100.00;100793.59;5069293;28;20495;-68
2023/08/27 07:58:23;;;;;;;7.30;3.97;;;;;;;16.12;100.00;100790.78;5069018;28;20039;-67
2023/08/27 08:00:55;;;;;;;10.27;4.22;;;;;;;16.24;100.00;100796.16;5068915;28;20041;-68
2023/08/27 08:03:20;;;;;;;8.80;4.30;;;;;;;16.69;100.00;100794.66;5088180;28;20047;-68
2023/08/27 08:05:48;;;;;;;7.85;3.60;;;;;;;17.96;100.00;100799.69;5088226;28;20032;-67
2023/08/27 08:08:14;;;;;;;7.32;3.25;;;;;;;19.52;100.00;100791.28;5085293;28;20441;-66
2023/08/27 08:10:39;;;;;;;8.25;3.08;;;;;;;20.59;100.00;100807.44;5081784;28;20071;-67
2023/08/27 08:13:04;;;;;;;6.95;4.15;;;;;;;21.39;98.44;100807.16;5088212;28;20414;-67
2023/08/27 08:15:30;;;;;;;8.73;3.58;;;;;;;21.86;91.86;100800.63;5088189;28;20071;-66
2023/08/27 08:17:55;;;;;;;5.43;3.25;;;;;;;22.53;89.33;100814.88;5088214;28;20038;-67
2023/08/27 08:20:20;;;;;;;5.03;2.67;;;;;;;23.50;86.16;100808.09;5087247;28;20024;-66
2023/08/27 08:22:46;;;;;;;6.32;3.05;;;;;;;22.75;78.13;100795.50;5088357;28;20036;-67
2023/08/27 08:25:11;;;;;;;8.65;3.13;;;;;;;22.29;82.45;100815.50;5088220;28;20382;-66
2023/08/27 08:27:36;;;;;;;7.65;3.28;;;;;;;22.58;80.25;100806.72;5088081;28;20028;-67
2023/08/27 08:30:03;;;;;;;4.68;2.55;;;;;;;23.44;76.77;100809.25;5078787;28;20153;-69
2023/08/27 08:32:29;;;;;;;3.92;2.67;;;;;;;24.13;76.37;100813.56;5070884;28;20035;-69
2023/08/27 08:34:55;;;;;;;5.20;2.40;;;;;;;24.21;72.62;100820.31;5072290;28;20024;-69
2023/08/27 08:37:20;;;;;;;6.03;3.00;;;;;;;23.77;73.17;100821.28;5073368;28;20111;-69
2023/08/27 08:39:46;;;;;;;5.18;2.90;;;;;;;23.74;76.12;100813.69;5073407;28;20181;-69
2023/08/27 08:42:32;;;;;;;7.88;3.63;;;;;;;24.08;79.06;100807.34;5074325;28;20030;-68
2023/08/27 08:45:20;;;;;;;4.97;2.38;;;;;;;22.82;74.25;100819.66;5071051;28;20109;-67
2023/08/27 08:47:47;;;;;;;7.63;2.85;;;;;;;21.32;81.49;100820.13;5072793;28;20026;-67
2023/08/27 08:50:13;;;;;;;6.88;3.38;;;;;;;20.50;85.85;100809.00;5071839;28;20030;-66
2023/08/27 08:52:39;;;;;;;4.07;2.50;;;;;;;20.09;90.25;100814.19;5070386;28;20036;-67
2023/08/27 08:55:09;;;;;;;5.65;2.95;;;;;;;19.83;94.10;100807.78;5073314;28;20036;-66
2023/08/27 08:57:43;;;;;;;6.57;3.10;;;;;;;19.54;92.20;100804.53;5072609;28;20610;-66
2023/08/27 09:00:11;;;;;;;5.15;3.03;;;;;;;19.33;93.81;100798.13;5071510;28;20116;-67
2023/08/27 09:02:40;;;;;;;5.45;2.47;;;;;;;19.25;92.40;100796.69;5071699;28;20111;-67
2023/08/27 09:05:08;;;;;;;4.75;3.05;;;;;;;19.26;95.41;100798.34;5071696;28;20040;-66
2023/08/27 09:07:36;;;;;;;4.75;2.33;;;;;;;19.15;93.77;100794.72;5070629;28;20032;-67
2023/08/27 09:10:03;;;;;;;5.95;2.58;;;;;;;18.95;92.84;100789.09;5071927;28;20040;-66
2023/08/27 09:12:30;;;;;;;4.43;2.35;;;;;;;18.78;92.55;100786.47;5071306;28;20479;-67
2023/08/27 09:14:55;;;;;;;5.55;2.40;;;;;;;18.78;92.77;100787.28;5071894;28;20051;-66
2023/08/27 09:17:22;;;;;;;5.00;2.60;;;;;;;18.82;94.78;100777.59;5070045;28;20008;-67
2023/08/27 09:19:50;;;;;;;5.75;2.63;;;;;;;18.88;94.15;100775.78;5070624;28;20433;-67
2023/08/27 09:22:17;;;;;;;5.28;3.03;;;;;;;19.02;95.87;100781.59;5072105;28;20111;-66
2023/08/27 09:24:43;;;;;;;5.57;2.78;;;;;;;18.98;93.11;100770.47;5072154;28;20037;-66
2023/08/27 09:27:08;;;;;;;4.13;2.20;;;;;;;19.12;93.07;100761.97;5069472;28;20122;-66
2023/08/27 09:29:33;;;;;;;6.05;2.88;;;;;;;19.19;92.22;100763.38;5071370;28;20035;-66
2023/08/27 09:31:59;;;;;;;5.07;2.20;;;;;;;19.24;91.72;100758.03;5071224;28;20081;-68
2023/08/27 09:34:25;;;;;;;9.48;3.63;;;;;;;19.34;95.71;100764.63;5071543;28;20035;-68
2023/08/27 09:36:51;;;;;;;4.90;2.35;;;;;;;19.36;91.88;100762.44;5070552;28;20032;-68
2023/08/27 09:39:16;;;;;;;7.05;2.13;;;;;;;19.43;92.73;100763.06;5071115;28;20405;-68
2023/08/27 09:41:44;;;;;;;3.45;2.35;;;;;;;19.60;91.89;100760.22;5070917;28;20034;-68
2023/08/27 09:44:10;;;;;;;6.25;2.63;;;;;;;19.52;91.39;100756.13;5071415;28;20323;-68
2023/08/27 09:46:37;;;;;;;3.28;1.85;;;;;;;19.49;88.27;100751.19;5071188;28;20027;-68
2023/08/27 09:49:07;;;;;;;4.60;1.80;;;;;;;19.53;87.80;100754.22;5070178;28;20073;-68
2023/08/27 09:51:38;;;;;;;3.60;1.48;;;;;;;19.42;89.79;100751.44;5070093;28;20149;-68
2023/08/27 09:54:15;;;;;;;5.85;1.65;;;;;;;19.40;88.41;100741.94;5078562;28;20423;-68
2023/08/27 09:56:47;;;;;;;7.45;1.38;;;;;;;19.46;85.44;100741.72;5071467;28;20464;-68
2023/08/27 09:59:18;;;;;;;4.50;1.35;;;;;;;19.42;86.76;100742.50;5069962;28;20062;-68
2023/08/27 10:01:50;;;;;;;2.97;1.93;;;;;;;19.23;86.28;100726.66;5070459;28;20047;-68
2023/08/27 10:04:17;;;;;;;5.40;1.85;;;;;;;19.13;87.04;100748.19;5071347;28;20274;-68
2023/08/27 10:06:43;;;;;;;3.53;1.85;;;;;;;18.87;88.34;100749.84;5070593;28;20095;-68
2023/08/27 10:09:09;;;;;;;6.07;2.53;;;;;;;18.78;88.93;100741.34;5070610;28;20491;-68
2023/08/27 10:11:35;;;;;;;3.70;2.05;;;;;;;18.94;91.26;100749.63;5070686;28;20027;-66
2023/08/27 10:14:03;;;;;;;3.83;1.83;;;;;;;19.04;89.37;100749.72;5069566;28;20028;-70
2023/08/27 10:16:30;;;;;;;1.85;1.48;;;;;;;19.18;88.17;100750.94;5069657;28;20982;-69
2023/08/27 10:18:56;;;;;;;2.05;1.58;;;;;;;19.44;91.38;100748.44;5070543;28;20036;-68
2023/08/27 10:21:22;;;;;;;2.28;1.80;;;;;;;19.65;87.69;100744.03;5069642;28;20090;-69
2023/08/27 10:23:48;;;;;;;3.13;1.30;;;;;;;19.66;86.30;100756.47;5069621;28;20658;-67
2023/08/27 10:26:14;;;;;;;7.88;2.70;;;;;;;19.77;87.00;100743.88;5071029;28;20063;-68
2023/08/27 10:28:40;;;;;;;2.80;1.50;;;;;;;19.79;85.91;100741.72;5070041;28;20066;-69
2023/08/27 10:31:06;;;;;;;7.72;3.05;;;;;;;19.68;82.60;100752.47;5069117;28;20044;-68
2023/08/27 10:33:32;;;;;;;5.22;1.65;;;;;;;19.81;87.15;100758.53;5070585;28;20094;-67
2023/08/27 10:36:03;;;;;;;6.72;1.98;;;;;;;19.89;86.81;100748.00;5069351;28;20978;-68
2023/08/27 10:38:31;;;;;;;2.00;1.58;;;;;;;20.03;85.26;100745.66;5070405;28;20125;-68
2023/08/27 10:40:57;;;;;;;2.65;1.95;;;;;;;20.03;82.19;100740.22;5070435;28;20020;-69
2023/08/27 10:43:23;;;;;;;5.32;2.13;;;;;;;20.16;83.00;100755.19;5069405;28;20031;-68
2023/08/27 10:45:49;;;;;;;2.60;1.70;;;;;;;20.09;80.41;100763.53;5068435;28;20475;-68
2023/08/27 10:48:18;;;;;;;2.88;1.50;;;;;;;19.92;82.11;100754.78;5069242;28;20581;-67
2023/08/27 10:50:48;;;;;;;4.47;1.85;;;;;;;19.97;82.82;100754.03;5069458;28;20036;-67
2023/08/27 10:53:19;;;;;;;4.63;2.45;;;;;;;19.87;81.80;100755.56;5069142;28;20119;-68
2023/08/27 10:55:50;;;;;;;2.17;1.35;;;;;;;19.89;82.74;100763.44;5069512;28;20042;-66
2023/08/27 10:58:23;;;;;;;2.67;1.60;;;;;;;19.95;86.07;100756.97;5069013;28;20028;-69
2023/08/27 11:01:07;;;;;;;2.08;1.38;;;;;;;19.86;84.48;100748.53;5069059;28;20028;-67
2023/08/27 11:04:03;;;;;;;2.92;1.80;;;;;;;19.70;86.00;100746.78;5070219;28;20063;-67
2023/08/27 11:06:46;;;;;;;7.15;2.47;;;;;;;19.52;85.50;100748.00;5070214;28;20070;-69
2023/08/27 11:09:29;;;;;;;4.28;1.80;;;;;;;19.40;86.93;100741.94;5069129;28;20137;-69
2023/08/27 11:11:56;;;;;;;3.83;1.67;;;;;;;19.54;87.82;100747.72;5070328;28;20027;-69
2023/08/27 11:14:24;;;;;;;1.70;1.60;;;;;;;19.83;84.80;100750.94;5068697;28;20048;-69
2023/08/27 11:17:10;;;;;;;2.90;2.05;;;;;;;20.06;82.86;100745.13;5069187;28;20419;-69